Time;durP1;ratioP1;P1;durP2;ratioP2;P2;SDS_P1;SDS_P2;PMS_P1;PMS_P2;Temp;Humidity;BMP_temperature;BMP_pressure;BME280_temperature;BME280_humidity;BME280_pressure;Samples;Min_cycle;Max_cycle;Signal;HPM_P1;HPM_P2
2022/07/04 00:02:14;;;;;;;0.50;0.50;;;;;;;21.65;69.47;95610.09;4364054;32;20185;-59
2022/07/04 00:04:39;;;;;;;0.43;0.43;;;;;;;21.70;69.74;95618.69;4380692;32;20185;-59
2022/07/04 00:07:06;;;;;;;0.67;0.67;;;;;;;21.73;69.95;95623.38;4377807;32;20188;-59
2022/07/04 00:09:35;;;;;;;0.70;0.70;;;;;;;21.73;69.16;95617.19;4346365;32;20192;-59
2022/07/04 00:12:02;;;;;;;0.80;0.80;;;;;;;21.84;68.16;95610.84;4360862;32;20185;-58
2022/07/04 00:14:29;;;;;;;0.63;0.63;;;;;;;21.82;69.87;95618.50;4351019;32;20294;-59
2022/07/04 00:16:55;;;;;;;0.50;0.50;;;;;;;21.71;71.24;95612.16;4366965;32;20193;-59
2022/07/04 00:19:21;;;;;;;0.20;0.20;;;;;;;21.67;71.55;95613.22;4376569;32;20188;-59
2022/07/04 00:21:46;;;;;;;0.47;0.47;;;;;;;21.57;71.63;95614.59;4328919;32;20189;-60
2022/07/04 00:24:14;;;;;;;0.43;0.43;;;;;;;21.48;72.97;95611.31;4378698;32;20197;-58
2022/07/04 00:26:40;;;;;;;1.33;1.23;;;;;;;21.42;73.18;95613.50;4370174;32;20225;-58
2022/07/04 00:29:08;;;;;;;1.90;0.87;;;;;;;21.45;73.56;95618.19;4355963;32;20200;-58
2022/07/04 00:31:35;;;;;;;0.40;0.40;;;;;;;21.54;74.18;95626.09;4335688;32;20207;-59
2022/07/04 00:34:03;;;;;;;0.20;0.20;;;;;;;21.50;73.70;95622.53;4361439;32;20246;-58
2022/07/04 00:36:28;;;;;;;0.43;0.43;;;;;;;21.41;74.27;95611.94;4367426;32;20290;-59
2022/07/04 00:38:55;;;;;;;0.30;0.30;;;;;;;21.43;74.45;95625.06;4333656;32;20189;-59
2022/07/04 00:41:21;;;;;;;0.30;0.30;;;;;;;21.45;74.61;95633.59;4339616;32;20197;-59
2022/07/04 00:44:07;;;;;;;0.70;0.70;;;;;;;21.38;74.31;95623.47;4319938;32;20202;-59
2022/07/04 00:46:37;;;;;;;0.70;0.63;;;;;;;21.42;74.89;95618.91;4334642;32;20197;-59
2022/07/04 00:49:07;;;;;;;0.40;0.40;;;;;;;21.39;74.80;95614.22;4349397;32;20200;-59
2022/07/04 00:51:33;;;;;;;0.70;0.70;;;;;;;21.43;74.85;95611.59;4349252;32;20248;-59
2022/07/04 00:54:00;;;;;;;0.70;0.70;;;;;;;21.40;74.45;95604.22;4338502;32;20220;-59
2022/07/04 00:56:27;;;;;;;0.93;0.93;;;;;;;21.43;75.17;95601.56;4339702;32;20197;-59
2022/07/04 00:58:53;;;;;;;0.50;0.50;;;;;;;21.51;75.11;95618.69;4328477;32;20215;-58
2022/07/04 01:01:21;;;;;;;0.73;0.73;;;;;;;21.55;74.83;95628.44;4361498;32;20189;-59
2022/07/04 01:03:49;;;;;;;0.30;0.30;;;;;;;21.49;74.99;95639.88;4325458;32;20245;-59
2022/07/04 01:06:16;;;;;;;0.40;0.40;;;;;;;21.51;75.17;95634.91;4330531;32;20181;-59
2022/07/04 01:08:47;;;;;;;0.50;0.50;;;;;;;21.46;75.01;95664.87;4338156;32;20219;-59
2022/07/04 01:11:16;;;;;;;0.60;0.60;;;;;;;21.47;76.48;95640.22;4343554;32;20201;-58
2022/07/04 01:13:43;;;;;;;0.60;0.60;;;;;;;21.38;76.83;95661.25;4342684;32;20223;-59
2022/07/04 01:16:13;;;;;;;0.37;0.37;;;;;;;21.38;76.52;95653.16;4357270;32;20244;-60
2022/07/04 01:18:52;;;;;;;0.60;0.60;;;;;;;21.37;76.55;95635.41;4340258;32;20180;-59
2022/07/04 01:21:18;;;;;;;0.67;0.67;;;;;;;21.32;76.77;95624.09;4350564;32;20271;-58
2022/07/04 01:23:46;;;;;;;0.30;0.30;;;;;;;21.26;77.36;95613.56;4301400;32;20299;-59
2022/07/04 01:26:11;;;;;;;0.43;0.43;;;;;;;21.31;77.18;95622.53;4310224;32;20236;-60
2022/07/04 01:28:39;;;;;;;0.50;0.50;;;;;;;21.40;76.61;95617.72;4337597;32;20201;-59
2022/07/04 01:31:05;;;;;;;0.20;0.20;;;;;;;21.34;76.21;95619.13;4321066;32;20197;-59
2022/07/04 01:33:31;;;;;;;3.30;0.90;;;;;;;21.25;74.87;95622.03;4308018;32;20185;-59
2022/07/04 01:35:57;;;;;;;0.10;0.10;;;;;;;21.34;75.64;95629.91;4318484;32;20235;-58
2022/07/04 01:38:23;;;;;;;0.73;0.73;;;;;;;21.33;74.04;95636.44;4333922;32;20201;-59
2022/07/04 01:40:49;;;;;;;0.47;0.47;;;;;;;21.30;73.10;95629.06;4352745;32;20274;-59
2022/07/04 01:43:16;;;;;;;0.50;0.50;;;;;;;21.39;74.46;95625.03;4310978;32;20209;-59
2022/07/04 01:45:42;;;;;;;0.50;0.50;;;;;;;21.43;73.95;95620.47;4339058;32;20225;-58
2022/07/04 01:48:12;;;;;;;0.30;0.30;;;;;;;21.46;73.33;95611.66;4327391;32;20203;-58
2022/07/04 01:50:42;;;;;;;0.87;0.73;;;;;;;21.46;72.76;95603.56;4330032;32;20199;-59
2022/07/04 01:53:10;;;;;;;0.40;0.40;;;;;;;21.43;71.91;95600.78;4324928;32;20192;-59
2022/07/04 01:55:37;;;;;;;0.40;0.40;;;;;;;21.48;73.14;95598.59;4331180;32;20208;-59
2022/07/04 01:58:03;;;;;;;0.30;0.30;;;;;;;21.54;72.68;95588.28;4338051;32;20189;-59
2022/07/04 02:03:15;;;;;;;0.50;0.50;;;;;;;21.54;72.61;95580.19;4350418;32;20295;-59
2022/07/04 02:05:48;;;;;;;0.60;0.60;;;;;;;21.55;72.30;95573.66;4348347;32;20197;-61
2022/07/04 02:08:13;;;;;;;0.60;0.60;;;;;;;21.54;71.94;95578.28;4352810;32;20229;-58
2022/07/04 02:10:41;;;;;;;0.30;0.30;;;;;;;21.62;71.70;95577.25;4330465;32;20205;-59
2022/07/04 02:13:07;;;;;;;0.40;0.40;;;;;;;21.62;72.29;95568.38;4359082;32;20214;-59
2022/07/04 02:15:37;;;;;;;4.33;0.60;;;;;;;21.62;71.64;95562.97;4287364;32;20263;-59
2022/07/04 02:18:06;;;;;;;0.63;0.63;;;;;;;21.62;71.86;95563.75;4334575;32;20200;-58
2022/07/04 02:20:34;;;;;;;0.20;0.20;;;;;;;21.62;72.64;95569.16;4318424;32;20205;-59
2022/07/04 02:23:02;;;;;;;0.30;0.30;;;;;;;21.64;72.29;95560.69;4326173;32;20300;-59
2022/07/04 02:25:28;;;;;;;0.20;0.20;;;;;;;21.64;72.39;95563.38;4331289;32;20223;-59
2022/07/04 02:27:56;;;;;;;8.87;0.90;;;;;;;21.67;72.43;95567.28;4329954;32;20207;-59
2022/07/04 02:30:26;;;;;;;0.27;0.27;;;;;;;21.68;72.78;95574.25;4314404;32;20193;-59
2022/07/04 02:32:52;;;;;;;0.40;0.40;;;;;;;21.66;72.69;95590.03;4345533;32;20312;-59
2022/07/04 02:35:20;;;;;;;0.67;0.67;;;;;;;21.67;72.26;95597.78;4352014;32;20189;-59
2022/07/04 02:37:47;;;;;;;0.00;0.00;;;;;;;21.66;70.50;95593.53;4348511;32;20215;-59
2022/07/04 02:40:14;;;;;;;0.50;0.50;;;;;;;21.60;70.76;95597.66;4349238;32;20230;-59
2022/07/04 02:42:40;;;;;;;0.57;0.57;;;;;;;21.57;72.76;95599.16;4351892;32;20242;-59
2022/07/04 02:45:13;;;;;;;2.00;0.80;;;;;;;21.55;73.02;95589.84;4319537;32;20224;-59
2022/07/04 02:47:38;;;;;;;0.50;0.50;;;;;;;21.53;73.46;95603.72;4336913;32;20208;-59
2022/07/04 02:50:07;;;;;;;2.73;0.70;;;;;;;21.57;72.92;95611.88;4351102;32;20215;-60
2022/07/04 02:52:34;;;;;;;0.53;0.53;;;;;;;21.52;72.92;95609.47;4329128;32;20243;-59
2022/07/04 02:54:59;;;;;;;0.77;0.77;;;;;;;21.53;73.10;95609.09;4346298;32;20224;-59
2022/07/04 02:57:26;;;;;;;0.40;0.40;;;;;;;21.51;72.87;95616.78;4365707;32;20200;-59
2022/07/04 02:59:53;;;;;;;0.40;0.40;;;;;;;21.50;72.78;95615.22;4340946;32;20196;-58
2022/07/04 03:02:19;;;;;;;0.20;0.20;;;;;;;21.51;73.62;95614.06;4361340;32;20256;-59
2022/07/04 03:04:44;;;;;;;1.23;1.07;;;;;;;;;;4339610;32;20219;-59
2022/07/04 03:07:10;;;;;;;0.30;0.30;;;;;;;21.48;73.40;95609.38;4354408;32;20204;-59
2022/07/04 03:09:36;;;;;;;0.40;0.40;;;;;;;21.42;73.79;95612.72;4345231;32;20200;-59
2022/07/04 03:12:03;;;;;;;0.20;0.20;;;;;;;21.45;73.55;95612.78;4334899;32;20216;-59
2022/07/04 03:14:29;;;;;;;0.67;0.53;;;;;;;21.37;73.83;95615.72;4349662;32;20287;-59
2022/07/04 03:16:55;;;;;;;4.00;1.17;;;;;;;21.47;73.53;95615.12;4348089;32;20211;-59
2022/07/04 03:19:20;;;;;;;0.33;0.33;;;;;;;21.48;73.92;95609.38;4355961;32;20209;-58
2022/07/04 03:21:46;;;;;;;0.30;0.30;;;;;;;21.38;74.58;95612.66;4353258;32;20180;-58
2022/07/04 03:24:13;;;;;;;0.50;0.50;;;;;;;21.41;75.04;95608.44;4360804;32;20246;-59
2022/07/04 03:26:41;;;;;;;0.53;0.47;;;;;;;21.27;74.35;95604.34;4355369;32;20195;-61
2022/07/04 03:29:10;;;;;;;0.57;0.57;;;;;;;21.21;75.08;95588.78;4349700;32;20190;-59
2022/07/04 03:31:37;;;;;;;0.70;0.33;;;;;;;21.32;75.43;95597.09;4314657;32;20208;-59
2022/07/04 03:34:04;;;;;;;0.40;0.40;;;;;;;21.42;75.01;95601.91;4355057;32;20185;-58
2022/07/04 03:36:31;;;;;;;0.30;0.30;;;;;;;21.39;74.46;95613.44;4333350;32;20351;-59
2022/07/04 03:38:58;;;;;;;1.10;0.73;;;;;;;21.36;74.41;95623.03;4365102;32;20197;-59
2022/07/04 03:41:24;;;;;;;0.97;0.90;;;;;;;21.20;75.03;95638.47;4360625;32;20193;-58
2022/07/04 03:43:50;;;;;;;0.47;0.47;;;;;;;21.27;75.35;95636.72;4333089;32;20188;-59
2022/07/04 03:46:18;;;;;;;0.67;0.20;;;;;;;21.37;74.70;95637.31;4356676;32;20211;-58
2022/07/04 03:48:44;;;;;;;0.30;0.30;;;;;;;21.33;74.26;95639.94;4351199;32;20260;-59
2022/07/04 03:51:11;;;;;;;0.37;0.37;;;;;;;21.40;74.42;95644.72;4348546;32;20182;-59
2022/07/04 03:53:38;;;;;;;0.10;0.10;;;;;;;21.31;75.16;95650.31;4349272;32;20211;-59
2022/07/04 03:56:08;;;;;;;0.30;0.30;;;;;;;21.29;76.27;95649.09;4359105;32;20239;-58
2022/07/04 03:58:35;;;;;;;0.30;0.30;;;;;;;21.22;75.53;95637.00;4352387;32;20193;-59
2022/07/04 04:01:01;;;;;;;1.03;0.63;;;;;;;21.35;74.78;95639.59;4356278;32;20218;-59
2022/07/04 04:06:14;;;;;;;0.70;0.70;;;;;;;21.30;75.38;95656.06;4312871;32;20254;-63
2022/07/04 04:08:43;;;;;;;0.40;0.40;;;;;;;21.32;75.05;95664.59;4362656;32;20189;-59
2022/07/04 04:11:10;;;;;;;0.60;0.60;;;;;;;21.39;74.43;95673.63;4355439;32;20212;-63
2022/07/04 04:13:40;;;;;;;0.50;0.50;;;;;;;21.39;75.73;95683.62;4317331;32;20279;-59
2022/07/04 04:16:06;;;;;;;0.50;0.50;;;;;;;21.34;75.64;95692.00;4321885;32;20201;-60
2022/07/04 04:18:32;;;;;;;1.00;1.00;;;;;;;21.38;74.09;95688.25;4357893;32;20216;-59
2022/07/04 04:21:00;;;;;;;0.43;0.43;;;;;;;21.32;75.33;95697.75;4356394;32;20199;-59
2022/07/04 04:23:26;;;;;;;0.93;0.90;;;;;;;21.36;75.65;95700.53;4326515;32;20228;-59
2022/07/04 04:25:53;;;;;;;0.50;0.50;;;;;;;21.23;75.71;95695.25;4339653;32;20227;-60
2022/07/04 04:28:23;;;;;;;1.20;0.80;;;;;;;21.30;75.34;95694.63;4371378;32;20193;-59
2022/07/04 04:30:53;;;;;;;1.30;0.40;;;;;;;21.34;75.93;95705.50;4354757;32;20213;-60
2022/07/04 04:33:19;;;;;;;0.60;0.60;;;;;;;21.26;76.31;95710.72;4342896;32;20231;-59
2022/07/04 04:35:49;;;;;;;1.03;1.03;;;;;;;21.27;76.17;95709.59;4366303;32;20188;-59
2022/07/04 04:38:14;;;;;;;0.73;0.73;;;;;;;21.25;75.89;95706.47;4369447;32;20208;-59
2022/07/04 04:40:41;;;;;;;1.00;1.00;;;;;;;21.36;75.79;95703.25;4353574;32;20249;-59
2022/07/04 04:43:07;;;;;;;7.10;0.87;;;;;;;21.40;75.78;95702.19;4305476;32;20193;-59
2022/07/04 04:45:34;;;;;;;0.43;0.43;;;;;;;21.32;75.89;95695.06;4331119;32;20181;-59
2022/07/04 04:47:59;;;;;;;4.23;1.07;;;;;;;21.41;76.01;95697.53;4329485;32;20318;-59
2022/07/04 04:50:27;;;;;;;0.70;0.70;;;;;;;21.41;75.24;95702.94;4337767;32;20244;-60
2022/07/04 04:52:53;;;;;;;0.30;0.30;;;;;;;21.41;75.93;95706.41;4336053;32;20236;-59
2022/07/04 04:55:21;;;;;;;1.27;0.63;;;;;;;21.56;75.24;95704.81;4360445;32;20199;-59
2022/07/04 04:57:49;;;;;;;0.63;0.63;;;;;;;21.55;75.41;95701.34;4349846;32;20193;-59
2022/07/04 05:00:14;;;;;;;0.50;0.50;;;;;;;21.48;74.97;95703.09;4349548;32;20205;-60
2022/07/04 05:02:41;;;;;;;0.60;0.47;;;;;;;21.55;75.92;95714.06;4351118;32;20236;-59
2022/07/04 05:05:09;;;;;;;0.33;0.33;;;;;;;21.53;76.89;95719.03;4331751;32;20200;-59
2022/07/04 05:07:38;;;;;;;0.50;0.50;;;;;;;21.45;78.25;95715.38;4367501;32;20242;-59
2022/07/04 05:10:08;;;;;;;0.70;0.70;;;;;;;21.38;78.67;95719.88;4355133;32;20193;-59
2022/07/04 05:12:41;;;;;;;0.53;0.53;;;;;;;21.25;78.06;95735.38;4343559;32;20192;-59
2022/07/04 05:15:14;;;;;;;0.53;0.53;;;;;;;21.39;78.04;95743.81;4352213;32;20207;-59
2022/07/04 05:17:39;;;;;;;0.30;0.30;;;;;;;21.39;79.30;95759.22;4368545;32;20215;-60
2022/07/04 05:20:07;;;;;;;0.83;0.83;;;;;;;21.31;78.54;95762.87;4368165;32;20197;-59
2022/07/04 05:22:37;;;;;;;0.60;0.60;;;;;;;21.21;78.79;95764.19;4336545;32;20204;-59
2022/07/04 05:25:04;;;;;;;0.57;0.57;;;;;;;21.22;77.91;95766.53;4331967;32;20217;-59
2022/07/04 05:27:31;;;;;;;0.27;0.27;;;;;;;21.21;78.44;95764.97;4340242;32;20192;-60
2022/07/04 05:29:58;;;;;;;5.37;1.07;;;;;;;21.12;78.12;95769.75;4343731;32;20186;-59
2022/07/04 05:32:25;;;;;;;1.80;1.70;;;;;;;21.04;78.69;95765.31;4352636;32;20189;-59
2022/07/04 05:34:56;;;;;;;0.50;0.50;;;;;;;21.01;78.71;95759.81;4340153;32;20270;-59
2022/07/04 05:37:25;;;;;;;0.70;0.70;;;;;;;21.10;79.31;95766.62;4344053;32;20197;-59
2022/07/04 05:39:52;;;;;;;1.50;1.37;;;;;;;21.11;79.85;95762.78;4352313;32;20189;-59
2022/07/04 05:42:18;;;;;;;1.17;1.17;;;;;;;21.10;79.84;95763.94;4344258;32;20201;-59
2022/07/04 05:44:44;;;;;;;5.40;1.40;;;;;;;21.14;80.13;95762.09;4366934;32;20204;-59
2022/07/04 05:47:11;;;;;;;0.87;0.83;;;;;;;21.08;80.51;95755.41;4350146;32;20250;-59
2022/07/04 05:49:37;;;;;;;2.40;0.50;;;;;;;21.10;80.37;95755.06;4368329;32;20252;-59
2022/07/04 05:52:03;;;;;;;1.43;1.07;;;;;;;21.11;81.05;95759.31;4349513;32;20271;-59
2022/07/04 05:54:33;;;;;;;0.50;0.50;;;;;;;21.14;80.35;95778.28;4333420;32;20271;-59
2022/07/04 05:57:06;;;;;;;0.47;0.47;;;;;;;20.98;80.19;95774.81;4355305;32;20200;-59
2022/07/04 05:59:33;;;;;;;0.63;0.57;;;;;;;20.82;81.43;95787.50;4326182;32;20279;-59
2022/07/04 06:02:00;;;;;;;0.60;0.60;;;;;;;20.72;81.76;95782.62;4345683;32;20425;-59
2022/07/04 06:04:27;;;;;;;0.50;0.50;;;;;;;20.91;81.79;95793.53;4351367;32;20192;-59
2022/07/04 06:06:55;;;;;;;0.50;0.50;;;;;;;20.82;81.90;95790.97;4351443;32;20287;-59
2022/07/04 06:09:22;;;;;;;0.63;0.63;;;;;;;20.92;82.07;95789.69;4357630;32;20239;-58
2022/07/04 06:11:50;;;;;;;0.43;0.43;;;;;;;20.90;82.04;95791.97;4360294;32;20223;-57
2022/07/04 06:14:17;;;;;;;0.63;0.47;;;;;;;20.76;83.17;95789.69;4337364;32;20217;-57
2022/07/04 06:16:45;;;;;;;0.63;0.63;;;;;;;20.81;82.66;95791.31;4358922;32;20236;-57
2022/07/04 06:19:10;;;;;;;16.57;1.43;;;;;;;20.79;83.62;95796.28;4329276;32;20212;-58
2022/07/04 06:21:37;;;;;;;0.60;0.60;;;;;;;20.80;82.01;95787.06;4330982;32;20211;-59
2022/07/04 06:24:05;;;;;;;0.30;0.30;;;;;;;20.89;82.17;95785.78;4362343;32;20255;-59
2022/07/04 06:26:31;;;;;;;0.50;0.50;;;;;;;20.92;81.18;95789.69;4363188;32;20199;-59
2022/07/04 06:28:58;;;;;;;1.00;1.00;;;;;;;21.01;80.81;95793.00;4359946;32;20200;-59
2022/07/04 06:31:24;;;;;;;0.53;0.53;;;;;;;20.93;81.22;95792.03;4362455;32;20216;-60
2022/07/04 06:36:37;;;;;;;0.50;0.50;;;;;;;20.87;80.56;95798.81;4368874;32;20207;-59
2022/07/04 06:39:05;;;;;;;0.43;0.43;;;;;;;20.87;80.55;95798.03;4361944;32;20193;-59
2022/07/04 06:41:34;;;;;;;0.50;0.50;;;;;;;20.81;80.90;95783.22;4346098;32;20202;-58
2022/07/04 06:44:01;;;;;;;0.57;0.57;;;;;;;20.85;81.00;95782.19;4353443;32;20227;-59
2022/07/04 06:46:27;;;;;;;0.60;0.60;;;;;;;20.81;81.57;95794.03;4348974;32;20205;-59
2022/07/04 06:48:55;;;;;;;0.20;0.20;;;;;;;20.72;82.68;95796.91;4341879;32;20225;-60
2022/07/04 06:51:22;;;;;;;0.63;0.63;;;;;;;20.68;83.46;95800.63;4337304;32;20221;-59
2022/07/04 06:53:51;;;;;;;0.60;0.60;;;;;;;20.59;84.45;95806.94;4338401;32;20188;-59
2022/07/04 06:56:19;;;;;;;0.20;0.20;;;;;;;20.51;84.96;95801.75;4343112;32;20193;-59
2022/07/04 06:58:45;;;;;;;0.33;0.33;;;;;;;20.57;85.38;95805.75;4313081;32;20194;-59
2022/07/04 07:01:10;;;;;;;0.23;0.23;;;;;;;20.57;85.56;95803.84;4342680;32;20288;-58
2022/07/04 07:03:37;;;;;;;0.20;0.20;;;;;;;20.36;86.98;95805.94;4341081;32;20205;-59
2022/07/04 07:06:06;;;;;;;0.20;0.20;;;;;;;20.35;87.49;95808.97;4348231;32;20180;-60
2022/07/04 07:08:32;;;;;;;0.47;0.47;;;;;;;20.37;87.44;95812.12;4343001;32;20219;-58
2022/07/04 07:11:18;;;;;;;0.50;0.50;;;;;;;20.44;86.45;95799.63;4329627;32;20197;-59
2022/07/04 07:13:51;;;;;;;0.27;0.27;;;;;;;20.50;85.51;95806.34;4332395;32;20233;-59
2022/07/04 07:16:18;;;;;;;0.40;0.40;;;;;;;20.53;85.67;95819.13;4335247;32;20243;-59
2022/07/04 07:18:44;;;;;;;0.67;0.67;;;;;;;20.44;86.03;95821.19;4340059;32;20201;-59
2022/07/04 07:21:10;;;;;;;0.63;0.63;;;;;;;20.54;85.91;95811.84;4355376;32;20234;-59
2022/07/04 07:23:40;;;;;;;0.43;0.43;;;;;;;20.47;85.37;95817.03;4340408;32;20245;-59
2022/07/04 07:26:07;;;;;;;0.33;0.33;;;;;;;20.55;85.41;95816.87;4353424;32;20200;-58
2022/07/04 07:28:32;;;;;;;0.30;0.30;;;;;;;20.38;86.03;95827.94;4328841;32;20185;-59
2022/07/04 07:31:00;;;;;;;0.70;0.70;;;;;;;20.42;85.89;95815.34;4338029;32;20220;-59
2022/07/04 07:33:38;;;;;;;0.70;0.70;;;;;;;20.46;85.90;95821.63;4351288;32;20201;-58
2022/07/04 07:36:06;;;;;;;0.60;0.60;;;;;;;20.30;87.40;95820.00;4327155;32;20208;-59
2022/07/04 07:38:36;;;;;;;0.63;0.63;;;;;;;20.38;87.61;95809.06;4314855;32;20252;-59
2022/07/04 07:41:04;;;;;;;0.30;0.30;;;;;;;20.22;88.59;95824.37;4315701;32;20193;-60
2022/07/04 07:43:31;;;;;;;2.40;0.50;;;;;;;20.33;88.24;95832.78;4324659;32;20205;-59
2022/07/04 07:45:59;;;;;;;0.30;0.30;;;;;;;20.36;87.77;95827.50;4330212;32;20190;-59
2022/07/04 07:48:25;;;;;;;0.57;0.57;;;;;;;20.32;88.13;95799.66;4338245;32;20219;-59
2022/07/04 07:50:51;;;;;;;0.20;0.20;;;;;;;20.21;89.66;95804.75;4326224;32;20193;-57
2022/07/04 07:53:17;;;;;;;1.03;0.60;;;;;;;20.22;89.42;95805.53;4327276;32;20212;-57
2022/07/04 07:55:43;;;;;;;0.80;0.80;;;;;;;20.45;88.39;95789.62;4346945;32;20201;-59
2022/07/04 07:58:09;;;;;;;0.27;0.27;;;;;;;20.52;88.00;95785.22;4358289;32;20189;-56
2022/07/04 08:00:36;;;;;;;0.57;0.57;;;;;;;20.51;88.22;95786.34;4359626;32;20213;-56
2022/07/04 08:05:49;;;;;;;0.30;0.30;;;;;;;20.57;87.24;95784.19;4357545;32;20246;-57
2022/07/04 08:08:15;;;;;;;0.30;0.30;;;;;;;20.70;85.93;95779.50;4343133;32;20197;-57
2022/07/04 08:10:41;;;;;;;0.40;0.40;;;;;;;20.64;85.61;95778.19;4348595;32;20211;-57
2022/07/04 08:13:08;;;;;;;0.40;0.40;;;;;;;20.68;86.78;95773.66;4358754;32;20188;-59
2022/07/04 08:15:35;;;;;;;0.63;0.63;;;;;;;20.74;85.94;95777.69;4344986;32;20196;-59
2022/07/04 08:18:01;;;;;;;0.50;0.50;;;;;;;20.70;84.71;95772.19;4355697;32;20390;-59
2022/07/04 08:20:27;;;;;;;0.40;0.40;;;;;;;20.74;85.77;95772.28;4348600;32;20193;-59
2022/07/04 08:22:55;;;;;;;0.60;0.60;;;;;;;20.77;85.01;95767.00;4319493;32;20193;-59
2022/07/04 08:25:21;;;;;;;0.43;0.43;;;;;;;20.98;83.89;95758.63;4335986;32;20203;-58
2022/07/04 08:27:48;;;;;;;0.50;0.50;;;;;;;21.08;82.89;95762.72;4342996;32;20201;-59
2022/07/04 08:30:14;;;;;;;0.63;0.63;;;;;;;21.26;82.45;95750.44;4323432;32;20296;-59
2022/07/04 08:32:40;;;;;;;0.60;0.60;;;;;;;21.30;83.56;95748.59;4318079;32;20221;-60
2022/07/04 08:35:07;;;;;;;0.37;0.37;;;;;;;21.31;82.90;95742.06;4316559;32;20237;-58
2022/07/04 08:37:34;;;;;;;0.47;0.47;;;;;;;21.43;81.96;95743.88;4321687;32;20200;-59
2022/07/04 08:40:06;;;;;;;0.50;0.50;;;;;;;21.57;81.39;95744.19;4351121;32;20287;-59
2022/07/04 08:42:36;;;;;;;0.60;0.60;;;;;;;21.56;82.05;95750.72;4359677;32;20242;-58
2022/07/04 08:45:04;;;;;;;0.50;0.50;;;;;;;21.60;81.53;95754.31;4341568;32;20189;-59
2022/07/04 08:47:33;;;;;;;0.60;0.60;;;;;;;21.62;80.41;95754.69;4334686;32;20305;-59
2022/07/04 08:50:28;;;;;;;1.50;0.57;;;;;;;21.65;80.24;95756.69;4357148;32;20204;-59
2022/07/04 08:52:59;;;;;;;0.60;0.60;;;;;;;21.68;79.40;95756.00;4352711;32;20278;-59
2022/07/04 08:58:38;;;;;;;0.67;0.50;;;;;;;21.62;81.05;95752.00;4350697;32;20227;-59
2022/07/04 09:01:14;;;;;;;0.70;0.70;;;;;;;21.77;79.82;95751.19;4356723;32;20307;-59
2022/07/04 09:03:46;;;;;;;0.50;0.50;;;;;;;21.87;78.93;95749.84;4340363;32;20255;-59
2022/07/04 09:06:12;;;;;;;0.53;0.53;;;;;;;21.82;77.93;95742.78;4358905;32;20241;-58
2022/07/04 09:08:59;;;;;;;0.40;0.40;;;;;;;21.96;78.97;95736.91;4351282;32;20193;-59
2022/07/04 09:11:25;;;;;;;1.40;0.77;;;;;;;22.18;77.93;95740.84;4356652;32;20204;-59
2022/07/04 09:13:52;;;;;;;0.20;0.20;;;;;;;22.31;77.50;95738.75;4344614;32;20208;-59
2022/07/04 09:16:17;;;;;;;0.57;0.57;;;;;;;22.41;76.72;95743.59;4323643;32;20197;-59
2022/07/04 09:18:42;;;;;;;0.50;0.50;;;;;;;22.53;75.43;95736.09;4336757;32;20262;-59
2022/07/04 09:21:09;;;;;;;0.03;0.03;;;;;;;22.56;75.78;95748.09;4331258;32;20253;-59
2022/07/04 09:23:42;;;;;;;0.40;0.40;;;;;;;22.67;74.56;95750.97;4354470;32;20203;-59
2022/07/04 09:26:22;;;;;;;0.33;0.33;;;;;;;22.74;75.52;95753.81;4315165;32;20231;-58
2022/07/04 09:28:59;;;;;;;0.30;0.30;;;;;;;22.83;74.76;95749.00;4366970;32;20299;-59
2022/07/04 09:31:28;;;;;;;0.47;0.47;;;;;;;22.98;73.45;95750.78;4342706;32;20205;-60
2022/07/04 09:33:59;;;;;;;0.10;0.10;;;;;;;23.08;72.55;95750.16;4333784;32;20251;-58
2022/07/04 09:36:27;;;;;;;0.23;0.23;;;;;;;23.21;71.28;95756.19;4337124;32;20201;-58
2022/07/04 09:39:19;;;;;;;0.43;0.43;;;;;;;23.22;71.17;95753.09;4344378;32;20201;-60
2022/07/04 09:42:08;;;;;;;0.13;0.13;;;;;;;23.27;70.70;95746.59;4325944;32;20257;-60
2022/07/04 09:44:44;;;;;;;0.50;0.50;;;;;;;23.35;68.67;95747.47;4316925;32;20194;-59
2022/07/04 09:47:24;;;;;;;0.40;0.40;;;;;;;23.23;69.42;95749.25;4331083;32;20185;-61
2022/07/04 09:50:09;;;;;;;2.80;0.50;;;;;;;23.36;69.14;95755.25;4350644;32;20193;-59
2022/07/04 09:53:07;;;;;;;0.40;0.40;;;;;;;23.31;67.62;95753.63;4357865;32;20205;-59
2022/07/04 09:55:37;;;;;;;0.67;0.53;;;;;;;23.40;68.05;95753.38;4307324;32;20277;-59
2022/07/04 09:58:11;;;;;;;1.23;0.80;;;;;;;23.46;67.32;95753.84;4320093;32;20190;-60
2022/07/04 10:00:47;;;;;;;0.73;0.73;;;;;;;23.39;67.72;95748.31;4297824;32;20193;-59
2022/07/04 10:03:20;;;;;;;0.20;0.20;;;;;;;23.44;68.70;95739.87;4325388;32;20219;-60
2022/07/04 10:06:17;;;;;;;0.30;0.30;;;;;;;23.43;69.18;95749.94;4313703;32;20194;-59
2022/07/04 10:08:44;;;;;;;0.47;0.47;;;;;;;23.35;70.56;95747.47;4365169;32;20189;-59
2022/07/04 10:11:11;;;;;;;1.50;1.50;;;;;;;23.50;68.79;95749.25;4341630;32;20213;-59
2022/07/04 10:13:38;;;;;;;2.00;1.90;;;;;;;23.55;68.12;95741.63;4366161;32;20204;-59
2022/07/04 10:16:09;;;;;;;0.50;0.50;;;;;;;23.54;67.18;95733.84;4321785;32;20272;-59
2022/07/04 10:18:35;;;;;;;0.20;0.20;;;;;;;23.57;66.32;95743.97;4318686;32;20279;-59
2022/07/04 10:21:23;;;;;;;0.30;0.30;;;;;;;23.61;65.70;95739.38;4328640;32;20201;-59
2022/07/04 10:23:51;;;;;;;0.87;0.77;;;;;;;23.66;65.84;95741.00;4336500;32;20320;-59
2022/07/04 10:26:23;;;;;;;0.33;0.33;;;;;;;23.65;66.48;95745.63;4332293;32;20228;-59
2022/07/04 10:28:52;;;;;;;0.43;0.43;;;;;;;23.61;64.88;95744.78;4340119;32;20197;-59
2022/07/04 10:31:25;;;;;;;0.40;0.40;;;;;;;23.51;66.40;95750.81;4351700;32;20237;-58
2022/07/04 10:33:54;;;;;;;0.10;0.10;;;;;;;23.60;66.73;95745.94;4326125;32;20211;-59
2022/07/04 10:36:27;;;;;;;0.30;0.30;;;;;;;23.61;66.41;95748.28;4336967;32;20180;-59
2022/07/04 10:38:58;;;;;;;0.30;0.30;;;;;;;23.57;66.32;95752.09;4348774;32;20255;-59
2022/07/04 10:41:56;;;;;;;0.20;0.20;;;;;;;23.52;65.22;95745.06;4364358;32;20185;-59
2022/07/04 10:44:25;;;;;;;0.20;0.20;;;;;;;23.69;64.63;95748.41;4289453;32;20190;-59
2022/07/04 10:47:03;;;;;;;0.47;0.47;;;;;;;23.62;64.80;95741.72;4314609;32;20208;-59
2022/07/04 10:49:30;;;;;;;0.17;0.17;;;;;;;23.66;64.09;95747.19;4350395;32;20200;-58
2022/07/04 10:52:13;;;;;;;0.40;0.40;;;;;;;23.77;62.08;95741.91;4335244;32;20208;-59
2022/07/04 10:54:45;;;;;;;0.50;0.50;;;;;;;23.71;62.11;95746.06;4349428;32;20199;-59
2022/07/04 10:57:24;;;;;;;0.47;0.47;;;;;;;23.64;61.80;95739.44;4353987;32;20257;-59
2022/07/04 11:00:05;;;;;;;0.20;0.20;;;;;;;23.59;63.07;95744.38;4344362;32;20193;-59
2022/07/04 11:02:35;;;;;;;0.20;0.20;;;;;;;23.65;62.38;95734.78;4334641;32;20184;-59
2022/07/04 11:05:11;;;;;;;0.53;0.43;;;;;;;23.63;63.51;95737.09;4345538;32;20306;-59
2022/07/04 11:07:47;;;;;;;0.83;0.53;;;;;;;23.60;64.42;95733.19;4323398;33;20197;-59
2022/07/04 11:10:26;;;;;;;1.17;1.17;;;;;;;23.58;63.99;95738.19;4314665;32;20215;-64
2022/07/04 11:12:57;;;;;;;1.10;1.10;;;;;;;23.57;63.86;95733.13;4367682;32;20197;-59
2022/07/04 11:15:48;;;;;;;0.53;0.53;;;;;;;23.69;63.03;95738.34;4339265;32;20196;-59
2022/07/04 11:18:16;;;;;;;0.77;0.60;;;;;;;23.77;63.29;95742.69;4319962;32;20256;-59
2022/07/04 11:20:47;;;;;;;0.43;0.43;;;;;;;23.83;63.73;95727.66;4367913;32;20227;-59
2022/07/04 11:23:20;;;;;;;0.67;0.67;;;;;;;23.88;63.73;95732.00;4350441;32;20192;-59
2022/07/04 11:26:02;;;;;;;0.37;0.37;;;;;;;23.97;63.49;95719.69;4342611;32;20294;-59
2022/07/04 11:28:39;;;;;;;0.77;0.77;;;;;;;24.04;64.15;95723.66;4338907;32;20193;-60
2022/07/04 11:31:32;;;;;;;0.10;0.10;;;;;;;24.07;63.12;95717.50;4340373;32;20203;-60
2022/07/04 11:33:59;;;;;;;1.57;1.03;;;;;;;24.09;63.67;95709.78;4322942;32;20193;-59
2022/07/04 11:36:26;;;;;;;0.27;0.27;;;;;;;24.16;64.22;95701.69;4356610;32;20185;-59
2022/07/04 11:38:55;;;;;;;0.13;0.13;;;;;;;24.21;62.56;95713.00;4346440;32;20200;-59
2022/07/04 11:47:23;;;;;;;0.47;0.47;;;;;;;24.27;63.95;95694.50;4333805;32;20249;-59
2022/07/04 11:50:13;;;;;;;0.67;0.67;;;;;;;24.30;63.95;95693.75;4318087;32;20208;-59
2022/07/04 11:52:44;;;;;;;0.47;0.47;;;;;;;24.38;63.68;95692.66;4310862;32;20213;-62
2022/07/04 11:55:12;;;;;;;0.30;0.30;;;;;;;24.45;61.54;95697.38;4361321;32;20205;-66
2022/07/04 11:57:45;;;;;;;0.10;0.10;;;;;;;24.56;58.82;95687.41;4354613;32;20264;-59
2022/07/04 12:00:35;;;;;;;0.10;0.10;;;;;;;24.54;59.54;95685.06;4326432;32;20196;-59
2022/07/04 12:03:03;;;;;;;3.03;0.77;;;;;;;24.51;59.32;95693.97;4346683;32;20315;-59
2022/07/04 12:05:30;;;;;;;0.10;0.10;;;;;;;24.43;61.05;95692.34;4348983;32;20224;-59